Weather at Otradnaya Airport

Public forecast

Using degrees Celsius for public forecast. Weather courtesy of forecast.io.

Closest aviation weather report (METAR) to Otradnaya Airport

Closest report is Stavropol Shpakovskoye Airport, 51.1 nm (94.5 km) NNE. Retrieved 2020/10/24 11:30 UTC (0 seconds ago):

URMT 241130Z 33005MPS CAVOK 20/04 Q1018 R25/010070 NOSIG RMK QFE725

Closest aviation forecast (TAF) to Otradnaya Airport

Forecast is more than 12 hours old.

Closest forecast is Stavropol Shpakovskoye Airport, 51.1 nm (94.5 km) NNE. Retrieved 2019/08/03 03:15 UTC (1 year ago):

TAF URMT 030200Z 0303/0321 31005G12MPS 9999 SCT020